createdAt,value
2022-08-11T00:00:15.260Z,102470.03
2022-08-11T00:02:49.787Z,102474.09
2022-08-11T00:05:20.910Z,102473.56
2022-08-11T00:07:51.821Z,102465.53
2022-08-11T00:10:22.911Z,102473.16
2022-08-11T00:12:56.277Z,102471.25
2022-08-11T00:15:27.945Z,102475.22
2022-08-11T00:18:02.307Z,102475.50
2022-08-11T00:20:33.175Z,102474.50
2022-08-11T00:23:07.524Z,102475.19
2022-08-11T00:25:40.814Z,102473.78
2022-08-11T00:28:28.172Z,102469.13
2022-08-11T00:31:00.761Z,102472.44
2022-08-11T00:33:44.073Z,102472.50
2022-08-11T00:36:22.026Z,102478.03
2022-08-11T00:38:54.743Z,102478.56
2022-08-11T00:41:35.229Z,102467.88
2022-08-11T00:44:46.656Z,102476.75
2022-08-11T00:47:29.142Z,102479.09
2022-08-11T00:50:12.409Z,102476.06
2022-08-11T00:53:13.583Z,102473.47
2022-08-11T00:56:57.551Z,102473.25
2022-08-11T01:00:05.544Z,102480.56
2022-08-11T01:03:05.262Z,102473.66
2022-08-11T01:06:05.512Z,102470.16
2022-08-11T01:09:30.080Z,102469.16
2022-08-11T01:12:25.458Z,102478.72
2022-08-11T01:15:57.312Z,102469.53
2022-08-11T01:19:21.727Z,102465.69
2022-08-11T01:22:40.188Z,102468.94
2022-08-11T01:26:02.548Z,102466.19
2022-08-11T01:29:14.010Z,102473.00
2022-08-11T01:32:29.245Z,102473.59
2022-08-11T01:35:49.781Z,102481.66
2022-08-11T01:39:05.241Z,102468.25
2022-08-11T01:42:07.149Z,102469.66
2022-08-11T01:45:17.232Z,102474.50
2022-08-11T01:47:57.374Z,102474.94
2022-08-11T01:50:49.697Z,102477.28
2022-08-11T01:53:30.158Z,102466.06
2022-08-11T01:56:14.627Z,102464.84
2022-08-11T01:58:58.965Z,102468.16
2022-08-11T02:01:44.962Z,102470.16
2022-08-11T02:04:32.311Z,102466.47
2022-08-11T02:07:14.791Z,102469.44
2022-08-11T02:10:01.886Z,102464.94
2022-08-11T02:12:52.772Z,102461.84
2022-08-11T02:15:30.013Z,102462.16
2022-08-11T02:18:45.430Z,102462.47
2022-08-11T02:21:40.726Z,102471.69
2022-08-11T02:24:21.905Z,102462.91
2022-08-11T02:27:03.104Z,102457.41
2022-08-11T02:29:39.359Z,102455.97
2022-08-11T02:32:37.954Z,102459.22
2022-08-11T02:35:19.910Z,102452.31
2022-08-11T02:38:03.048Z,102459.41
2022-08-11T02:40:49.345Z,102458.31
2022-08-11T02:43:36.025Z,102463.69
2022-08-11T02:46:22.955Z,102458.19
2022-08-11T02:49:23.526Z,102453.16
2022-08-11T02:52:06.704Z,102456.78
2022-08-11T02:54:54.590Z,102451.72
2022-08-11T02:57:34.806Z,102447.31
2022-08-11T03:00:08.980Z,102458.09
2022-08-11T03:03:08.713Z,102455.59
2022-08-11T03:06:01.117Z,102451.91
2022-08-11T03:08:52.401Z,102442.69
2022-08-11T03:11:57.538Z,102451.53
2022-08-11T03:14:54.850Z,102452.63
2022-08-11T03:17:33.684Z,102444.00
2022-08-11T03:20:38.273Z,102438.44
2022-08-11T03:23:20.025Z,102441.72
2022-08-11T03:25:57.958Z,102437.69
2022-08-11T03:28:33.506Z,102438.53
2022-08-11T03:31:25.835Z,102434.50
2022-08-11T03:34:08.001Z,102435.19
2022-08-11T03:37:33.776Z,102436.19
2022-08-11T03:40:17.180Z,102433.56
2022-08-11T03:42:57.862Z,102433.56
2022-08-11T03:45:38.783Z,102432.59
2022-08-11T03:48:21.127Z,102443.03
2022-08-11T03:51:02.938Z,102428.22
2022-08-11T03:53:52.885Z,102433.03
2022-08-11T03:56:49.388Z,102436.50
2022-08-11T03:59:56.418Z,102434.78
2022-08-11T04:03:09.403Z,102446.47
2022-08-11T04:06:13.319Z,102442.25
2022-08-11T04:09:38.128Z,102443.66
2022-08-11T04:12:47.116Z,102443.25
2022-08-11T04:16:00.764Z,102437.03
2022-08-11T04:19:16.917Z,102429.53
2022-08-11T04:23:03.599Z,102424.22
2022-08-11T04:26:01.162Z,102422.69
2022-08-11T04:29:02.063Z,102421.16
2022-08-11T04:31:51.342Z,102420.28
2022-08-11T04:35:10.262Z,102425.94
2022-08-11T04:38:32.441Z,102432.78
2022-08-11T04:41:34.881Z,102426.81
2022-08-11T04:45:01.757Z,102420.38
2022-08-11T04:48:38.272Z,102429.75
2022-08-11T04:52:07.045Z,102428.44
2022-08-11T04:55:13.408Z,102424.22
2022-08-11T04:58:12.532Z,102427.22
2022-08-11T05:01:15.424Z,102421.16
2022-08-11T05:04:31.490Z,102427.47
2022-08-11T05:07:48.720Z,102421.50
2022-08-11T05:10:49.209Z,102428.22
2022-08-11T05:13:47.742Z,102421.50
2022-08-11T05:16:38.705Z,102426.19
2022-08-11T05:19:24.264Z,102425.63
2022-08-11T05:22:15.111Z,102428.13
2022-08-11T05:25:05.428Z,102425.84
2022-08-11T05:28:08.804Z,102432.78
2022-08-11T05:30:59.218Z,102429.75
2022-08-11T05:33:54.013Z,102432.88
2022-08-11T05:36:32.313Z,102442.13
2022-08-11T05:39:33.938Z,102440.53
2022-08-11T05:42:29.762Z,102431.13
2022-08-11T05:45:23.587Z,102442.47
2022-08-11T05:48:10.135Z,102443.13
2022-08-11T05:50:56.053Z,102434.59
2022-08-11T05:53:46.126Z,102442.97
2022-08-11T05:56:19.472Z,102439.97
2022-08-11T05:58:52.117Z,102430.03
2022-08-11T06:01:27.254Z,102435.25
2022-08-11T06:04:17.381Z,102433.50
2022-08-11T06:06:57.109Z,102436.88
2022-08-11T06:09:33.774Z,102442.09
2022-08-11T06:12:07.394Z,102434.56
2022-08-11T06:14:43.475Z,102439.13
2022-08-11T06:17:14.125Z,102436.94
2022-08-11T06:19:48.049Z,102436.66
2022-08-11T06:22:22.990Z,102452.44
2022-08-11T06:24:57.656Z,102446.09
2022-08-11T06:27:28.317Z,102439.38
2022-08-11T06:29:57.973Z,102437.88
2022-08-11T06:32:29.770Z,102426.91
2022-08-11T06:35:17.942Z,102440.22
2022-08-11T06:38:06.332Z,102437.09
2022-08-11T06:40:44.400Z,102432.06
2022-08-11T06:43:20.814Z,102431.78
2022-08-11T06:46:03.021Z,102431.22
2022-08-11T06:48:35.071Z,102434.91
2022-08-11T06:51:12.252Z,102431.13
2022-08-11T06:53:56.224Z,102434.41
2022-08-11T06:57:18.635Z,102433.72
2022-08-11T07:00:02.705Z,102441.22
2022-08-11T07:02:35.487Z,102444.63
2022-08-11T07:05:15.632Z,102439.75
2022-08-11T07:08:51.753Z,102436.94
2022-08-11T07:12:19.421Z,102432.38
2022-08-11T07:15:11.716Z,102426.06
2022-08-11T07:17:49.293Z,102430.72
2022-08-11T07:20:37.445Z,102426.25
2022-08-11T07:23:27.862Z,102430.75
2022-08-11T07:26:27.063Z,102425.53
2022-08-11T07:28:58.619Z,102431.59
2022-08-11T07:31:35.832Z,102426.69
2022-08-11T07:34:18.512Z,102428.13
2022-08-11T07:36:53.345Z,102427.25
2022-08-11T07:39:25.414Z,102430.28
2022-08-11T07:41:59.266Z,102426.91
2022-08-11T07:44:34.766Z,102424.47
2022-08-11T07:47:21.454Z,102418.84
2022-08-11T07:50:09.152Z,102423.19
2022-08-11T07:52:40.506Z,102411.81
2022-08-11T07:55:14.539Z,102414.53
2022-08-11T07:58:15.498Z,102420.72
2022-08-11T08:01:21.491Z,102421.94
2022-08-11T08:04:09.716Z,102416.38
2022-08-11T08:06:57.034Z,102414.88
2022-08-11T08:09:45.356Z,102421.25
2022-08-11T08:12:32.624Z,102421.44
2022-08-11T08:15:24.930Z,102414.44
2022-08-11T08:18:09.669Z,102415.81
2022-08-11T08:20:49.680Z,102424.41
2022-08-11T08:23:32.763Z,102427.56
2022-08-11T08:26:05.711Z,102420.47
2022-08-11T08:28:46.463Z,102422.22
2022-08-11T08:31:14.187Z,102420.81
2022-08-11T08:33:43.885Z,102425.75
2022-08-11T08:36:12.901Z,102416.47
2022-08-11T08:38:43.015Z,102424.19
2022-08-11T08:41:16.365Z,102421.78
2022-08-11T08:43:50.066Z,102423.16
2022-08-11T08:46:26.693Z,102415.00
2022-08-11T08:48:56.178Z,102423.22
2022-08-11T08:52:01.291Z,102425.97
2022-08-11T08:54:33.976Z,102420.19
2022-08-11T08:57:05.078Z,102419.75
2022-08-11T08:59:49.135Z,102420.34
2022-08-11T09:02:20.559Z,102424.50
2022-08-11T09:05:04.093Z,102417.78
2022-08-11T09:07:39.078Z,102417.94
2022-08-11T09:10:11.344Z,102410.16
2022-08-11T09:12:43.556Z,102417.06
2022-08-11T09:15:14.100Z,102415.34
2022-08-11T09:17:47.456Z,102416.84
2022-08-11T09:20:21.256Z,102403.94
2022-08-11T09:24:06.852Z,102405.19
2022-08-11T09:26:18.434Z,102409.94
2022-08-11T09:28:50.058Z,102411.38
2022-08-11T09:31:21.966Z,102402.63
2022-08-11T09:33:54.964Z,102395.88
2022-08-11T09:36:40.941Z,102395.63
2022-08-11T09:39:28.223Z,102391.75
2022-08-11T09:42:02.941Z,102401.66
2022-08-11T09:44:49.723Z,102392.94
2022-08-11T09:47:24.183Z,102391.63
2022-08-11T09:50:00.657Z,102395.47
2022-08-11T09:52:33.731Z,102390.34
2022-08-11T09:55:03.395Z,102389.47
2022-08-11T09:57:48.973Z,102378.78
2022-08-11T10:00:21.567Z,102392.84
2022-08-11T10:02:53.180Z,102386.59
2022-08-11T10:05:39.811Z,102381.88
2022-08-11T10:08:13.106Z,102387.25
2022-08-11T10:10:42.704Z,102384.66
2022-08-11T10:14:31.582Z,102383.03
2022-08-11T10:16:15.100Z,102376.28
2022-08-11T10:18:52.583Z,102378.97
2022-08-11T10:21:30.598Z,102372.78
2022-08-11T10:24:19.884Z,102364.84
2022-08-11T10:26:58.872Z,102373.88
2022-08-11T10:29:52.137Z,102362.06
2022-08-11T10:32:57.412Z,102364.97
2022-08-11T10:35:29.274Z,102359.47
2022-08-11T10:38:05.943Z,102359.53
2022-08-11T10:40:40.581Z,102353.72
2022-08-11T10:43:14.350Z,102356.63
2022-08-11T10:46:05.535Z,102347.44
2022-08-11T10:48:39.002Z,102351.31
2022-08-11T10:51:14.245Z,102345.34
2022-08-11T10:54:04.489Z,102340.78
2022-08-11T10:56:57.181Z,102340.84
2022-08-11T10:59:30.009Z,102335.38
2022-08-11T11:02:00.571Z,102338.81
2022-08-11T11:04:50.782Z,102335.50
2022-08-11T11:07:24.208Z,102331.09
2022-08-11T11:09:59.519Z,102334.44
2022-08-11T11:12:52.668Z,102332.84
2022-08-11T11:15:42.357Z,102324.28
2022-08-11T11:18:16.909Z,102328.31
2022-08-11T11:20:52.798Z,102324.91
2022-08-11T11:23:28.189Z,102320.44
2022-08-11T11:26:31.882Z,102327.34
2022-08-11T11:29:53.095Z,102319.81
2022-08-11T11:32:35.195Z,102324.72
2022-08-11T11:35:44.640Z,102316.06
2022-08-11T11:38:15.670Z,102313.91
2022-08-11T11:40:44.674Z,102319.47
2022-08-11T11:43:14.048Z,102301.69
2022-08-11T11:45:43.910Z,102310.28
2022-08-11T11:48:13.715Z,102301.81
2022-08-11T11:50:42.878Z,102299.69
2022-08-11T11:53:15.280Z,102304.38
2022-08-11T11:55:44.497Z,102304.72
2022-08-11T11:58:32.590Z,102292.88
2022-08-11T12:01:25.421Z,102297.47
2022-08-11T12:03:57.231Z,102300.19
2022-08-11T12:06:28.925Z,102301.16
2022-08-11T12:09:01.353Z,102292.88
2022-08-11T12:11:50.313Z,102289.50
2022-08-11T12:14:24.453Z,102283.81
2022-08-11T12:16:53.204Z,102293.44
2022-08-11T12:19:28.914Z,102283.81
2022-08-11T12:22:23.107Z,102276.34
2022-08-11T12:25:11.092Z,102276.09
2022-08-11T12:27:43.660Z,102273.16
2022-08-11T12:30:14.432Z,102254.91
2022-08-11T12:32:45.978Z,102252.03
2022-08-11T12:35:18.073Z,102250.75
2022-08-11T12:37:50.687Z,102256.63
2022-08-11T12:41:14.983Z,102251.97
2022-08-11T12:43:56.594Z,102239.47
2022-08-11T12:46:33.137Z,102253.81
2022-08-11T12:49:30.321Z,102238.22
2022-08-11T12:52:14.452Z,102239.81
2022-08-11T12:54:52.721Z,102233.09
2022-08-11T12:57:51.674Z,102243.31
2022-08-11T13:00:39.519Z,102232.44
2022-08-11T13:03:28.725Z,102233.13
2022-08-11T13:05:59.918Z,102222.19
2022-08-11T13:08:31.243Z,102225.84
2022-08-11T13:11:20.077Z,102228.63
2022-08-11T13:13:57.763Z,102224.31
2022-08-11T13:16:32.127Z,102213.00
2022-08-11T13:19:05.000Z,102229.47
2022-08-11T13:21:33.709Z,102227.06
2022-08-11T13:24:03.773Z,102219.97
2022-08-11T13:26:48.209Z,102223.66
2022-08-11T13:29:26.718Z,102220.84
2022-08-11T13:32:01.536Z,102212.16
2022-08-11T13:34:35.270Z,102210.16
2022-08-11T13:37:15.875Z,102226.56
2022-08-11T13:39:47.366Z,102223.53
2022-08-11T13:42:20.211Z,102219.06
2022-08-11T13:44:50.609Z,102202.75
2022-08-11T13:47:22.172Z,102201.53
2022-08-11T13:49:51.423Z,102198.19
2022-08-11T13:52:21.763Z,102211.00
2022-08-11T13:54:55.285Z,102215.19
2022-08-11T13:58:18.227Z,102199.28
2022-08-11T14:00:27.663Z,102200.97
2022-08-11T14:03:11.773Z,102195.63
2022-08-11T14:05:46.811Z,102195.97
2022-08-11T14:08:37.118Z,102193.66
2022-08-11T14:12:21.201Z,102189.66
2022-08-11T14:14:22.377Z,102199.78
2022-08-11T14:16:56.709Z,102198.31
2022-08-11T14:19:30.722Z,102191.88
2022-08-11T14:22:11.487Z,102185.13
2022-08-11T14:24:42.414Z,102185.63
2022-08-11T14:28:15.495Z,102184.19
2022-08-11T14:30:05.821Z,102175.22
2022-08-11T14:32:55.388Z,102178.44
2022-08-11T14:35:28.812Z,102164.84
2022-08-11T14:38:00.445Z,102186.66
2022-08-11T14:40:51.761Z,102166.69
2022-08-11T14:44:12.212Z,102171.06
2022-08-11T14:46:44.533Z,102164.25
2022-08-11T14:49:15.142Z,102163.66
2022-08-11T14:51:46.966Z,102171.69
2022-08-11T14:54:34.658Z,102163.06
2022-08-11T14:57:04.189Z,102160.34
2022-08-11T14:59:33.440Z,102163.16
2022-08-11T15:02:21.942Z,102163.38
2022-08-11T15:04:52.074Z,102150.19
2022-08-11T15:07:29.728Z,102152.53
2022-08-11T15:10:12.774Z,102148.53
2022-08-11T15:12:43.315Z,102146.06
2022-08-11T15:15:30.517Z,102137.97
2022-08-11T15:18:02.782Z,102149.69
2022-08-11T15:20:53.932Z,102126.34
2022-08-11T15:23:39.971Z,102138.66
2022-08-11T15:26:14.076Z,102147.97
2022-08-11T15:29:08.330Z,102131.41
2022-08-11T15:31:59.246Z,102133.19
2022-08-11T15:34:48.118Z,102135.63
2022-08-11T15:37:31.390Z,102133.22
2022-08-11T15:40:31.463Z,102125.88
2022-08-11T15:43:29.121Z,102125.47
2022-08-11T15:46:02.418Z,102121.84
2022-08-11T15:48:42.816Z,102117.59
2022-08-11T15:51:15.377Z,102112.44
2022-08-11T15:53:56.614Z,102113.94
2022-08-11T15:56:28.838Z,102111.66
2022-08-11T15:59:43.196Z,102110.31
2022-08-11T16:02:28.604Z,102103.16
2022-08-11T16:05:02.767Z,102111.59
2022-08-11T16:07:38.484Z,102106.78
2022-08-11T16:10:19.353Z,102105.97
2022-08-11T16:13:21.291Z,102105.97
2022-08-11T16:16:11.143Z,102104.69
2022-08-11T16:18:47.065Z,102109.38
2022-08-11T16:21:35.108Z,102102.88
2022-08-11T16:25:57.707Z,102093.59
2022-08-11T16:27:12.973Z,102091.22
2022-08-11T16:29:46.455Z,102087.47
2022-08-11T16:32:22.238Z,102090.56
2022-08-11T16:35:15.953Z,102095.63
2022-08-11T16:38:04.120Z,102093.31
2022-08-11T16:40:35.430Z,102091.31
2022-08-11T16:43:27.504Z,102081.38
2022-08-11T16:46:14.370Z,102085.09
2022-08-11T16:48:47.095Z,102093.81
2022-08-11T16:51:15.846Z,102085.75
2022-08-11T16:54:00.150Z,102085.75
2022-08-11T16:56:38.755Z,102084.25
2022-08-11T16:59:16.929Z,102084.31
2022-08-11T17:01:55.198Z,102086.63
2022-08-11T17:04:49.768Z,102084.69
2022-08-11T17:07:40.259Z,102087.72
2022-08-11T17:10:51.129Z,102080.84
2022-08-11T17:13:30.066Z,102081.66
2022-08-11T17:16:11.510Z,102085.94
2022-08-11T17:18:50.135Z,102079.88
2022-08-11T17:21:26.175Z,102089.66
2022-08-11T17:23:57.045Z,102086.94
2022-08-11T17:26:48.313Z,102081.03
2022-08-11T17:29:18.201Z,102084.69
2022-08-11T17:32:07.358Z,102079.78
2022-08-11T17:34:53.873Z,102084.09
2022-08-11T17:37:24.347Z,102075.13
2022-08-11T17:39:54.984Z,102067.53
2022-08-11T17:42:42.151Z,102080.03
2022-08-11T17:45:29.865Z,102082.19
2022-08-11T17:48:19.573Z,102077.22
2022-08-11T17:50:49.192Z,102080.22
2022-08-11T17:53:36.893Z,102088.25
2022-08-11T17:56:23.968Z,102090.22
2022-08-11T17:59:12.051Z,102084.19
2022-08-11T18:01:42.560Z,102085.66
2022-08-11T18:04:16.396Z,102089.16
2022-08-11T18:06:46.399Z,102087.63
2022-08-11T18:09:36.249Z,102090.84
2022-08-11T18:12:25.251Z,102088.53
2022-08-11T18:15:14.805Z,102086.34
2022-08-11T18:18:01.153Z,102098.47
2022-08-11T18:20:49.980Z,102091.78
2022-08-11T18:23:45.604Z,102089.88
2022-08-11T18:26:42.569Z,102097.44
2022-08-11T18:29:30.594Z,102088.53
2022-08-11T18:32:46.094Z,102097.66
2022-08-11T18:35:37.307Z,102091.72
2022-08-11T18:38:28.756Z,102095.06
2022-08-11T18:41:24.054Z,102097.94
2022-08-11T18:44:16.678Z,102098.13
2022-08-11T18:47:05.952Z,102096.84
2022-08-11T18:50:03.759Z,102099.31
2022-08-11T18:52:53.873Z,102105.47
2022-08-11T18:55:41.951Z,102115.16
2022-08-11T18:58:31.010Z,102116.00
2022-08-11T19:01:20.930Z,102110.31
2022-08-11T19:04:11.968Z,102119.47
2022-08-11T19:07:09.831Z,102112.06
2022-08-11T19:10:07.747Z,102119.19
2022-08-11T19:12:59.960Z,102123.63
2022-08-11T19:15:47.968Z,102125.22
2022-08-11T19:18:41.486Z,102121.59
2022-08-11T19:21:29.809Z,102125.91
2022-08-11T19:24:20.102Z,102124.69
2022-08-11T19:27:06.855Z,102132.78
2022-08-11T19:30:04.882Z,102133.47
2022-08-11T19:33:01.969Z,102142.75
2022-08-11T19:35:49.386Z,102143.53
2022-08-11T19:38:37.291Z,102145.47
2022-08-11T19:41:56.277Z,102150.09
2022-08-11T19:44:35.816Z,102149.13
2022-08-11T19:47:23.769Z,102152.50
2022-08-11T19:50:10.522Z,102157.53
2022-08-11T19:52:58.406Z,102149.44
2022-08-11T19:55:47.022Z,102145.94
2022-08-11T19:58:34.593Z,102155.72
2022-08-11T20:01:20.948Z,102159.88
2022-08-11T20:04:08.622Z,102166.16
2022-08-11T20:06:56.653Z,102161.50
2022-08-11T20:10:05.304Z,102169.34
2022-08-11T20:12:51.597Z,102165.06
2022-08-11T20:18:43.078Z,102161.63
2022-08-11T20:21:37.420Z,102160.00
2022-08-11T20:24:27.557Z,102158.47
2022-08-11T20:27:24.553Z,102160.88
2022-08-11T20:30:18.752Z,102157.47
2022-08-11T20:33:07.476Z,102152.16
2022-08-11T20:36:17.968Z,102165.81
2022-08-11T20:39:08.646Z,102161.25
2022-08-11T20:41:59.584Z,102165.81
2022-08-11T20:44:49.336Z,102173.91
2022-08-11T20:47:59.278Z,102173.97
2022-08-11T20:50:48.285Z,102172.88
2022-08-11T20:53:39.367Z,102169.44
2022-08-11T20:56:30.306Z,102184.78
2022-08-11T20:59:21.871Z,102178.44
2022-08-11T21:02:10.619Z,102182.38
2022-08-11T21:05:00.218Z,102176.28
2022-08-11T21:11:01.612Z,102187.59
2022-08-11T21:14:03.064Z,102180.72
2022-08-11T21:16:57.689Z,102189.47
2022-08-11T21:20:06.714Z,102187.00
2022-08-11T21:23:05.615Z,102185.47
2022-08-11T21:25:59.870Z,102176.38
2022-08-11T21:28:59.133Z,102181.47
2022-08-11T21:31:50.767Z,102175.19
2022-08-11T21:34:41.459Z,102172.66
2022-08-11T21:37:30.936Z,102170.44
2022-08-11T21:40:23.138Z,102173.00
2022-08-11T21:43:13.082Z,102167.97
2022-08-11T21:46:02.274Z,102169.19
2022-08-11T21:48:53.981Z,102177.75
2022-08-11T21:51:44.654Z,102169.69
2022-08-11T21:54:31.459Z,102175.19
2022-08-11T21:57:19.417Z,102172.88
2022-08-11T22:00:13.062Z,102170.81
2022-08-11T22:03:03.583Z,102172.06
2022-08-11T22:05:53.390Z,102173.28
2022-08-11T22:08:39.532Z,102166.81
2022-08-11T22:11:38.644Z,102168.19
2022-08-11T22:14:26.004Z,102162.66
2022-08-11T22:17:22.612Z,102168.06
2022-08-11T22:20:09.805Z,102161.84
2022-08-11T22:22:58.838Z,102173.16
2022-08-11T22:25:53.647Z,102165.16
2022-08-11T22:28:42.556Z,102160.13
2022-08-11T22:31:32.223Z,102158.16
2022-08-11T22:34:24.956Z,102155.19
2022-08-11T22:37:24.182Z,102148.09
2022-08-11T22:40:17.211Z,102153.81
2022-08-11T22:43:03.671Z,102161.03
2022-08-11T22:45:50.596Z,102155.97
2022-08-11T22:48:37.562Z,102165.59
2022-08-11T22:51:25.466Z,102163.44
2022-08-11T22:54:17.809Z,102161.69
2022-08-11T22:57:08.411Z,102164.88
2022-08-11T22:59:56.445Z,102162.84
2022-08-11T23:02:46.426Z,102156.19
2022-08-11T23:05:34.894Z,102164.41
2022-08-11T23:08:21.176Z,102165.59
2022-08-11T23:11:09.011Z,102161.28
2022-08-11T23:13:58.338Z,102163.72
2022-08-11T23:16:45.508Z,102159.84
2022-08-11T23:20:06.801Z,102166.16
2022-08-11T23:22:49.531Z,102168.06
2022-08-11T23:25:37.262Z,102167.03
2022-08-11T23:28:26.536Z,102168.34
2022-08-11T23:31:16.862Z,102166.31
2022-08-11T23:34:08.005Z,102168.34
2022-08-11T23:36:54.336Z,102174.13
2022-08-11T23:39:40.920Z,102169.50
2022-08-11T23:42:29.075Z,102171.78
2022-08-11T23:45:18.524Z,102159.16
2022-08-11T23:48:11.295Z,102174.81
2022-08-11T23:50:58.885Z,102165.88
2022-08-11T23:53:45.035Z,102158.13
2022-08-11T23:56:32.514Z,102161.44
2022-08-11T23:59:20.687Z,102163.63
